sensor_id;sensor_type;location;lat;lon;timestamp;P1;durP1;ratioP1;P2;durP2;ratioP2
83232;SDS011;73119;42.642;23.332;2023-12-07T00:00:38;22.30;;;10.93;;
83232;SDS011;73119;42.642;23.332;2023-12-07T00:03:04;20.40;;;11.73;;
83232;SDS011;73119;42.642;23.332;2023-12-07T00:05:32;24.15;;;15.70;;
83232;SDS011;73119;42.642;23.332;2023-12-07T00:07:58;21.35;;;12.20;;
83232;SDS011;73119;42.642;23.332;2023-12-07T00:10:24;23.80;;;12.60;;
83232;SDS011;73119;42.642;23.332;2023-12-07T00:12:50;26.10;;;12.02;;
83232;SDS011;73119;42.642;23.332;2023-12-07T00:15:16;27.48;;;14.32;;
83232;SDS011;73119;42.642;23.332;2023-12-07T00:17:42;27.25;;;13.98;;
83232;SDS011;73119;42.642;23.332;2023-12-07T00:20:08;29.42;;;15.43;;
83232;SDS011;73119;42.642;23.332;2023-12-07T00:22:34;26.08;;;14.15;;
83232;SDS011;73119;42.642;23.332;2023-12-07T00:25:00;23.02;;;12.55;;
83232;SDS011;73119;42.642;23.332;2023-12-07T00:27:26;23.88;;;11.65;;
83232;SDS011;73119;42.642;23.332;2023-12-07T00:29:52;20.73;;;12.50;;
83232;SDS011;73119;42.642;23.332;2023-12-07T00:32:19;33.10;;;12.80;;
83232;SDS011;73119;42.642;23.332;2023-12-07T00:35:14;25.08;;;12.25;;
83232;SDS011;73119;42.642;23.332;2023-12-07T00:37:40;20.73;;;10.27;;
83232;SDS011;73119;42.642;23.332;2023-12-07T00:40:23;21.63;;;12.52;;
83232;SDS011;73119;42.642;23.332;2023-12-07T00:42:54;21.02;;;11.75;;
83232;SDS011;73119;42.642;23.332;2023-12-07T00:45:20;17.05;;;10.48;;
83232;SDS011;73119;42.642;23.332;2023-12-07T00:47:46;25.48;;;14.82;;
83232;SDS011;73119;42.642;23.332;2023-12-07T00:50:30;20.63;;;11.80;;
83232;SDS011;73119;42.642;23.332;2023-12-07T01:19:33;18.23;;;10.50;;
83232;SDS011;73119;42.642;23.332;2023-12-07T01:21:59;19.90;;;11.52;;
83232;SDS011;73119;42.642;23.332;2023-12-07T01:24:25;19.70;;;10.93;;
83232;SDS011;73119;42.642;23.332;2023-12-07T01:26:52;17.27;;;11.98;;
83232;SDS011;73119;42.642;23.332;2023-12-07T01:29:18;21.63;;;12.30;;
83232;SDS011;73119;42.642;23.332;2023-12-07T01:31:44;26.40;;;11.10;;
83232;SDS011;73119;42.642;23.332;2023-12-07T01:34:10;21.80;;;12.35;;
83232;SDS011;73119;42.642;23.332;2023-12-07T01:36:36;24.00;;;10.65;;
83232;SDS011;73119;42.642;23.332;2023-12-07T01:39:02;22.77;;;10.60;;
83232;SDS011;73119;42.642;23.332;2023-12-07T01:41:28;23.42;;;12.73;;
83232;SDS011;73119;42.642;23.332;2023-12-07T01:43:54;22.92;;;11.05;;
83232;SDS011;73119;42.642;23.332;2023-12-07T01:46:20;28.25;;;12.88;;
83232;SDS011;73119;42.642;23.332;2023-12-07T01:48:46;22.05;;;11.23;;
83232;SDS011;73119;42.642;23.332;2023-12-07T01:51:14;20.30;;;11.32;;
83232;SDS011;73119;42.642;23.332;2023-12-07T01:53:40;26.17;;;12.27;;
83232;SDS011;73119;42.642;23.332;2023-12-07T01:56:06;22.65;;;11.75;;
83232;SDS011;73119;42.642;23.332;2023-12-07T01:58:34;22.08;;;11.98;;
83232;SDS011;73119;42.642;23.332;2023-12-07T02:01:00;20.92;;;11.95;;
83232;SDS011;73119;42.642;23.332;2023-12-07T02:03:26;24.00;;;11.77;;
83232;SDS011;73119;42.642;23.332;2023-12-07T02:05:53;18.98;;;11.93;;
83232;SDS011;73119;42.642;23.332;2023-12-07T02:08:19;21.90;;;11.85;;
83232;SDS011;73119;42.642;23.332;2023-12-07T02:10:45;20.80;;;10.50;;
83232;SDS011;73119;42.642;23.332;2023-12-07T02:13:11;18.58;;;9.98;;
83232;SDS011;73119;42.642;23.332;2023-12-07T02:15:37;19.55;;;10.75;;
83232;SDS011;73119;42.642;23.332;2023-12-07T02:23:17;25.85;;;13.45;;
83232;SDS011;73119;42.642;23.332;2023-12-07T02:28:47;25.65;;;12.10;;
83232;SDS011;73119;42.642;23.332;2023-12-07T02:31:13;23.85;;;13.40;;
83232;SDS011;73119;42.642;23.332;2023-12-07T02:33:39;23.73;;;12.20;;
83232;SDS011;73119;42.642;23.332;2023-12-07T02:36:05;20.48;;;11.50;;
83232;SDS011;73119;42.642;23.332;2023-12-07T02:38:31;21.77;;;11.57;;
83232;SDS011;73119;42.642;23.332;2023-12-07T02:40:57;17.50;;;9.82;;
83232;SDS011;73119;42.642;23.332;2023-12-07T02:43:24;20.50;;;11.60;;
83232;SDS011;73119;42.642;23.332;2023-12-07T02:45:51;23.77;;;10.63;;
83232;SDS011;73119;42.642;23.332;2023-12-07T02:48:17;24.10;;;11.75;;
83232;SDS011;73119;42.642;23.332;2023-12-07T02:50:43;22.60;;;10.77;;
83232;SDS011;73119;42.642;23.332;2023-12-07T02:53:09;22.60;;;11.00;;
83232;SDS011;73119;42.642;23.332;2023-12-07T02:55:35;16.80;;;11.55;;
83232;SDS011;73119;42.642;23.332;2023-12-07T02:58:01;22.27;;;11.50;;
83232;SDS011;73119;42.642;23.332;2023-12-07T03:00:27;19.90;;;11.55;;
83232;SDS011;73119;42.642;23.332;2023-12-07T03:02:53;17.35;;;11.07;;
83232;SDS011;73119;42.642;23.332;2023-12-07T03:05:19;17.33;;;10.15;;
83232;SDS011;73119;42.642;23.332;2023-12-07T03:07:45;22.17;;;10.35;;
83232;SDS011;73119;42.642;23.332;2023-12-07T03:10:11;25.98;;;13.25;;
83232;SDS011;73119;42.642;23.332;2023-12-07T03:12:37;23.70;;;11.50;;
83232;SDS011;73119;42.642;23.332;2023-12-07T03:15:03;24.95;;;11.48;;
83232;SDS011;73119;42.642;23.332;2023-12-07T03:17:29;21.17;;;11.48;;
83232;SDS011;73119;42.642;23.332;2023-12-07T03:19:55;16.77;;;11.07;;
83232;SDS011;73119;42.642;23.332;2023-12-07T03:22:21;18.17;;;10.88;;
83232;SDS011;73119;42.642;23.332;2023-12-07T03:24:50;19.58;;;11.50;;
83232;SDS011;73119;42.642;23.332;2023-12-07T03:27:16;23.30;;;11.57;;
83232;SDS011;73119;42.642;23.332;2023-12-07T03:29:42;20.20;;;12.18;;
83232;SDS011;73119;42.642;23.332;2023-12-07T03:32:08;21.70;;;10.65;;
83232;SDS011;73119;42.642;23.332;2023-12-07T03:34:34;23.85;;;13.50;;
83232;SDS011;73119;42.642;23.332;2023-12-07T03:37:00;26.55;;;12.07;;
83232;SDS011;73119;42.642;23.332;2023-12-07T03:39:26;21.33;;;10.18;;
83232;SDS011;73119;42.642;23.332;2023-12-07T03:41:54;21.80;;;9.75;;
83232;SDS011;73119;42.642;23.332;2023-12-07T03:44:20;20.02;;;9.35;;
83232;SDS011;73119;42.642;23.332;2023-12-07T03:46:46;20.00;;;11.23;;
83232;SDS011;73119;42.642;23.332;2023-12-07T03:49:12;19.45;;;10.30;;
83232;SDS011;73119;42.642;23.332;2023-12-07T03:51:38;22.52;;;10.40;;
83232;SDS011;73119;42.642;23.332;2023-12-07T03:54:04;19.27;;;12.27;;
83232;SDS011;73119;42.642;23.332;2023-12-07T03:56:33;14.65;;;10.07;;
83232;SDS011;73119;42.642;23.332;2023-12-07T03:58:59;28.85;;;11.85;;
83232;SDS011;73119;42.642;23.332;2023-12-07T04:01:26;21.00;;;10.43;;
83232;SDS011;73119;42.642;23.332;2023-12-07T04:03:52;16.48;;;9.98;;
83232;SDS011;73119;42.642;23.332;2023-12-07T04:06:19;20.05;;;10.02;;
83232;SDS011;73119;42.642;23.332;2023-12-07T04:08:45;21.00;;;11.13;;
83232;SDS011;73119;42.642;23.332;2023-12-07T04:11:12;17.85;;;9.60;;
83232;SDS011;73119;42.642;23.332;2023-12-07T04:13:39;18.80;;;12.27;;
83232;SDS011;73119;42.642;23.332;2023-12-07T04:16:06;20.95;;;11.38;;
83232;SDS011;73119;42.642;23.332;2023-12-07T04:18:32;16.52;;;10.70;;
83232;SDS011;73119;42.642;23.332;2023-12-07T04:20:58;15.93;;;10.07;;
83232;SDS011;73119;42.642;23.332;2023-12-07T04:23:24;18.85;;;10.52;;
83232;SDS011;73119;42.642;23.332;2023-12-07T04:25:50;15.90;;;9.30;;
83232;SDS011;73119;42.642;23.332;2023-12-07T04:28:16;18.05;;;9.60;;
83232;SDS011;73119;42.642;23.332;2023-12-07T04:30:43;22.77;;;10.70;;
83232;SDS011;73119;42.642;23.332;2023-12-07T04:33:09;16.45;;;11.13;;
83232;SDS011;73119;42.642;23.332;2023-12-07T04:35:35;21.08;;;11.63;;
83232;SDS011;73119;42.642;23.332;2023-12-07T04:38:01;19.42;;;10.90;;
83232;SDS011;73119;42.642;23.332;2023-12-07T04:40:27;16.02;;;9.15;;
83232;SDS011;73119;42.642;23.332;2023-12-07T04:42:53;17.58;;;10.15;;
83232;SDS011;73119;42.642;23.332;2023-12-07T04:45:19;19.88;;;10.38;;
83232;SDS011;73119;42.642;23.332;2023-12-07T04:47:45;15.25;;;10.13;;
83232;SDS011;73119;42.642;23.332;2023-12-07T04:50:12;18.27;;;9.27;;
83232;SDS011;73119;42.642;23.332;2023-12-07T04:52:38;15.27;;;9.13;;
83232;SDS011;73119;42.642;23.332;2023-12-07T04:55:04;17.42;;;8.23;;
83232;SDS011;73119;42.642;23.332;2023-12-07T04:57:34;18.52;;;10.23;;
83232;SDS011;73119;42.642;23.332;2023-12-07T05:00:01;21.77;;;10.85;;
83232;SDS011;73119;42.642;23.332;2023-12-07T05:02:31;17.42;;;8.23;;
83232;SDS011;73119;42.642;23.332;2023-12-07T05:04:57;16.85;;;8.85;;
83232;SDS011;73119;42.642;23.332;2023-12-07T05:07:23;15.05;;;8.65;;
83232;SDS011;73119;42.642;23.332;2023-12-07T05:09:49;16.42;;;8.77;;
83232;SDS011;73119;42.642;23.332;2023-12-07T05:12:18;17.15;;;9.23;;
83232;SDS011;73119;42.642;23.332;2023-12-07T05:14:44;14.05;;;8.02;;
83232;SDS011;73119;42.642;23.332;2023-12-07T05:17:10;17.73;;;9.80;;
83232;SDS011;73119;42.642;23.332;2023-12-07T05:19:36;12.02;;;8.00;;
83232;SDS011;73119;42.642;23.332;2023-12-07T05:22:02;16.88;;;9.80;;
83232;SDS011;73119;42.642;23.332;2023-12-07T05:24:28;14.40;;;8.73;;
83232;SDS011;73119;42.642;23.332;2023-12-07T05:26:56;15.48;;;9.02;;
83232;SDS011;73119;42.642;23.332;2023-12-07T05:29:22;18.20;;;7.57;;
83232;SDS011;73119;42.642;23.332;2023-12-07T05:31:49;14.25;;;7.38;;
83232;SDS011;73119;42.642;23.332;2023-12-07T05:34:15;20.33;;;10.65;;
83232;SDS011;73119;42.642;23.332;2023-12-07T05:36:42;15.18;;;8.60;;
83232;SDS011;73119;42.642;23.332;2023-12-07T05:39:09;18.98;;;9.95;;
83232;SDS011;73119;42.642;23.332;2023-12-07T05:41:36;15.32;;;9.15;;
83232;SDS011;73119;42.642;23.332;2023-12-07T05:44:02;13.52;;;6.82;;
83232;SDS011;73119;42.642;23.332;2023-12-07T05:46:29;15.10;;;9.02;;
83232;SDS011;73119;42.642;23.332;2023-12-07T05:48:55;14.63;;;8.98;;
83232;SDS011;73119;42.642;23.332;2023-12-07T05:51:22;17.13;;;11.40;;
83232;SDS011;73119;42.642;23.332;2023-12-07T05:53:48;18.25;;;8.40;;
83232;SDS011;73119;42.642;23.332;2023-12-07T05:56:18;14.13;;;7.43;;
83232;SDS011;73119;42.642;23.332;2023-12-07T05:58:45;19.08;;;9.48;;
83232;SDS011;73119;42.642;23.332;2023-12-07T06:01:11;14.40;;;7.65;;
83232;SDS011;73119;42.642;23.332;2023-12-07T06:03:37;11.95;;;8.90;;
83232;SDS011;73119;42.642;23.332;2023-12-07T06:06:03;14.65;;;8.98;;
83232;SDS011;73119;42.642;23.332;2023-12-07T06:08:29;17.85;;;10.07;;
83232;SDS011;73119;42.642;23.332;2023-12-07T06:10:55;17.17;;;9.13;;
83232;SDS011;73119;42.642;23.332;2023-12-07T06:13:21;23.17;;;13.05;;
83232;SDS011;73119;42.642;23.332;2023-12-07T06:15:47;15.10;;;9.00;;
83232;SDS011;73119;42.642;23.332;2023-12-07T06:18:13;16.25;;;9.00;;
83232;SDS011;73119;42.642;23.332;2023-12-07T06:20:39;21.45;;;11.85;;
83232;SDS011;73119;42.642;23.332;2023-12-07T06:23:07;16.35;;;9.23;;
83232;SDS011;73119;42.642;23.332;2023-12-07T06:25:38;20.75;;;11.40;;
83232;SDS011;73119;42.642;23.332;2023-12-07T06:28:04;24.38;;;13.73;;
83232;SDS011;73119;42.642;23.332;2023-12-07T06:30:31;31.30;;;17.67;;
83232;SDS011;73119;42.642;23.332;2023-12-07T06:32:57;15.25;;;9.20;;
83232;SDS011;73119;42.642;23.332;2023-12-07T06:35:23;18.88;;;9.43;;
83232;SDS011;73119;42.642;23.332;2023-12-07T06:37:49;12.82;;;8.88;;
83232;SDS011;73119;42.642;23.332;2023-12-07T06:40:15;13.70;;;8.63;;
83232;SDS011;73119;42.642;23.332;2023-12-07T06:42:41;18.83;;;9.10;;
83232;SDS011;73119;42.642;23.332;2023-12-07T06:45:07;22.58;;;8.82;;
83232;SDS011;73119;42.642;23.332;2023-12-07T06:47:38;15.95;;;8.98;;
83232;SDS011;73119;42.642;23.332;2023-12-07T06:50:05;14.02;;;8.60;;
83232;SDS011;73119;42.642;23.332;2023-12-07T06:52:38;15.20;;;8.82;;
83232;SDS011;73119;42.642;23.332;2023-12-07T06:55:05;12.18;;;8.00;;
83232;SDS011;73119;42.642;23.332;2023-12-07T06:57:31;12.50;;;7.53;;
83232;SDS011;73119;42.642;23.332;2023-12-07T06:59:58;17.35;;;8.60;;
83232;SDS011;73119;42.642;23.332;2023-12-07T07:02:24;18.17;;;8.10;;
83232;SDS011;73119;42.642;23.332;2023-12-07T07:04:50;14.45;;;7.55;;
83232;SDS011;73119;42.642;23.332;2023-12-07T07:07:17;17.42;;;9.82;;
83232;SDS011;73119;42.642;23.332;2023-12-07T07:09:43;12.18;;;7.88;;
83232;SDS011;73119;42.642;23.332;2023-12-07T07:12:09;14.30;;;8.27;;
83232;SDS011;73119;42.642;23.332;2023-12-07T07:14:35;21.25;;;10.63;;
83232;SDS011;73119;42.642;23.332;2023-12-07T07:17:05;15.15;;;8.10;;
83232;SDS011;73119;42.642;23.332;2023-12-07T07:19:31;13.57;;;7.97;;
83232;SDS011;73119;42.642;23.332;2023-12-07T07:21:58;14.50;;;7.68;;
83232;SDS011;73119;42.642;23.332;2023-12-07T07:24:43;18.23;;;10.23;;
83232;SDS011;73119;42.642;23.332;2023-12-07T07:27:09;13.40;;;9.50;;
83232;SDS011;73119;42.642;23.332;2023-12-07T07:29:35;13.35;;;8.25;;
83232;SDS011;73119;42.642;23.332;2023-12-07T07:32:01;11.60;;;6.97;;
83232;SDS011;73119;42.642;23.332;2023-12-07T07:34:27;17.42;;;7.57;;
83232;SDS011;73119;42.642;23.332;2023-12-07T07:36:53;12.10;;;8.43;;
83232;SDS011;73119;42.642;23.332;2023-12-07T07:39:20;13.60;;;8.80;;
83232;SDS011;73119;42.642;23.332;2023-12-07T07:41:46;14.10;;;7.45;;
83232;SDS011;73119;42.642;23.332;2023-12-07T07:44:12;13.73;;;7.60;;
83232;SDS011;73119;42.642;23.332;2023-12-07T07:46:40;14.63;;;7.80;;
83232;SDS011;73119;42.642;23.332;2023-12-07T07:49:06;16.77;;;7.30;;
83232;SDS011;73119;42.642;23.332;2023-12-07T07:51:32;12.15;;;6.25;;
83232;SDS011;73119;42.642;23.332;2023-12-07T07:53:59;11.60;;;6.90;;
83232;SDS011;73119;42.642;23.332;2023-12-07T07:56:25;12.88;;;6.53;;
83232;SDS011;73119;42.642;23.332;2023-12-07T07:58:52;12.93;;;7.25;;
83232;SDS011;73119;42.642;23.332;2023-12-07T08:01:19;10.27;;;7.30;;
83232;SDS011;73119;42.642;23.332;2023-12-07T08:03:45;13.95;;;7.35;;
83232;SDS011;73119;42.642;23.332;2023-12-07T08:06:12;12.85;;;7.95;;
83232;SDS011;73119;42.642;23.332;2023-12-07T08:08:38;12.27;;;6.18;;
83232;SDS011;73119;42.642;23.332;2023-12-07T08:11:04;12.40;;;6.35;;
83232;SDS011;73119;42.642;23.332;2023-12-07T08:13:30;17.42;;;8.07;;
83232;SDS011;73119;42.642;23.332;2023-12-07T08:15:56;44.25;;;26.98;;
83232;SDS011;73119;42.642;23.332;2023-12-07T08:18:22;8.80;;;6.13;;
83232;SDS011;73119;42.642;23.332;2023-12-07T08:20:48;7.65;;;4.65;;
83232;SDS011;73119;42.642;23.332;2023-12-07T08:23:14;8.18;;;4.78;;
83232;SDS011;73119;42.642;23.332;2023-12-07T08:25:41;10.45;;;5.53;;
83232;SDS011;73119;42.642;23.332;2023-12-07T08:28:09;8.95;;;4.38;;
83232;SDS011;73119;42.642;23.332;2023-12-07T08:30:35;6.22;;;3.95;;
83232;SDS011;73119;42.642;23.332;2023-12-07T08:33:02;8.25;;;5.05;;
83232;SDS011;73119;42.642;23.332;2023-12-07T08:35:29;7.47;;;4.75;;
83232;SDS011;73119;42.642;23.332;2023-12-07T08:37:55;5.68;;;3.75;;
83232;SDS011;73119;42.642;23.332;2023-12-07T08:40:21;5.63;;;3.22;;
83232;SDS011;73119;42.642;23.332;2023-12-07T08:42:47;5.68;;;3.47;;
83232;SDS011;73119;42.642;23.332;2023-12-07T08:45:13;8.27;;;4.65;;
83232;SDS011;73119;42.642;23.332;2023-12-07T08:47:40;3.85;;;3.22;;
83232;SDS011;73119;42.642;23.332;2023-12-07T08:50:06;5.20;;;3.85;;
83232;SDS011;73119;42.642;23.332;2023-12-07T08:52:33;3.28;;;2.85;;
83232;SDS011;73119;42.642;23.332;2023-12-07T08:55:17;4.20;;;2.80;;
83232;SDS011;73119;42.642;23.332;2023-12-07T09:00:51;5.53;;;3.70;;
83232;SDS011;73119;42.642;23.332;2023-12-07T09:03:17;4.65;;;2.78;;
83232;SDS011;73119;42.642;23.332;2023-12-07T09:05:43;5.97;;;3.33;;
83232;SDS011;73119;42.642;23.332;2023-12-07T09:08:10;3.85;;;2.47;;
83232;SDS011;73119;42.642;23.332;2023-12-07T09:10:36;3.67;;;1.92;;
83232;SDS011;73119;42.642;23.332;2023-12-07T09:13:02;2.80;;;2.22;;
83232;SDS011;73119;42.642;23.332;2023-12-07T09:15:28;5.25;;;2.58;;
83232;SDS011;73119;42.642;23.332;2023-12-07T09:17:54;3.40;;;2.47;;
83232;SDS011;73119;42.642;23.332;2023-12-07T09:20:20;4.72;;;2.67;;
83232;SDS011;73119;42.642;23.332;2023-12-07T09:22:46;4.22;;;2.50;;
83232;SDS011;73119;42.642;23.332;2023-12-07T09:25:14;3.88;;;3.10;;
83232;SDS011;73119;42.642;23.332;2023-12-07T09:27:41;3.22;;;2.63;;
83232;SDS011;73119;42.642;23.332;2023-12-07T09:30:07;3.63;;;2.83;;
83232;SDS011;73119;42.642;23.332;2023-12-07T09:32:44;3.17;;;2.20;;
83232;SDS011;73119;42.642;23.332;2023-12-07T09:35:10;6.97;;;3.95;;
83232;SDS011;73119;42.642;23.332;2023-12-07T09:37:40;3.72;;;2.03;;
83232;SDS011;73119;42.642;23.332;2023-12-07T09:40:06;2.20;;;1.58;;
83232;SDS011;73119;42.642;23.332;2023-12-07T09:42:32;2.53;;;2.33;;
83232;SDS011;73119;42.642;23.332;2023-12-07T09:44:59;4.32;;;2.33;;
83232;SDS011;73119;42.642;23.332;2023-12-07T09:47:26;3.03;;;1.55;;
83232;SDS011;73119;42.642;23.332;2023-12-07T09:49:53;2.55;;;2.20;;
83232;SDS011;73119;42.642;23.332;2023-12-07T09:52:19;2.05;;;1.42;;
83232;SDS011;73119;42.642;23.332;2023-12-07T09:54:47;1.38;;;1.27;;
83232;SDS011;73119;42.642;23.332;2023-12-07T09:57:15;1.83;;;1.42;;
83232;SDS011;73119;42.642;23.332;2023-12-07T09:59:41;2.15;;;1.42;;
83232;SDS011;73119;42.642;23.332;2023-12-07T10:02:09;2.50;;;1.42;;
83232;SDS011;73119;42.642;23.332;2023-12-07T10:04:36;2.47;;;2.03;;
83232;SDS011;73119;42.642;23.332;2023-12-07T10:07:02;1.77;;;1.65;;
83232;SDS011;73119;42.642;23.332;2023-12-07T10:09:28;5.28;;;1.58;;
83232;SDS011;73119;42.642;23.332;2023-12-07T10:12:03;2.83;;;1.55;;
83232;SDS011;73119;42.642;23.332;2023-12-07T10:14:30;1.40;;;1.30;;
83232;SDS011;73119;42.642;23.332;2023-12-07T10:16:56;1.92;;;1.75;;
83232;SDS011;73119;42.642;23.332;2023-12-07T10:19:23;1.00;;;0.88;;
83232;SDS011;73119;42.642;23.332;2023-12-07T10:21:51;2.05;;;1.00;;
83232;SDS011;73119;42.642;23.332;2023-12-07T10:24:18;1.70;;;1.23;;
83232;SDS011;73119;42.642;23.332;2023-12-07T10:26:45;3.00;;;1.50;;
83232;SDS011;73119;42.642;23.332;2023-12-07T10:29:11;1.20;;;1.10;;
83232;SDS011;73119;42.642;23.332;2023-12-07T10:31:38;5.18;;;1.20;;
83232;SDS011;73119;42.642;23.332;2023-12-07T10:34:04;2.15;;;1.15;;
83232;SDS011;73119;42.642;23.332;2023-12-07T10:36:30;4.00;;;1.85;;
83232;SDS011;73119;42.642;23.332;2023-12-07T10:38:57;2.00;;;1.08;;
83232;SDS011;73119;42.642;23.332;2023-12-07T10:41:24;3.45;;;1.50;;
83232;SDS011;73119;42.642;23.332;2023-12-07T10:43:56;3.10;;;1.52;;
83232;SDS011;73119;42.642;23.332;2023-12-07T10:46:23;2.33;;;2.13;;
83232;SDS011;73119;42.642;23.332;2023-12-07T10:48:53;1.30;;;1.10;;
83232;SDS011;73119;42.642;23.332;2023-12-07T10:51:28;1.92;;;1.52;;
83232;SDS011;73119;42.642;23.332;2023-12-07T10:53:55;1.30;;;0.95;;
83232;SDS011;73119;42.642;23.332;2023-12-07T10:56:56;2.83;;;2.22;;
83232;SDS011;73119;42.642;23.332;2023-12-07T10:59:16;3.10;;;1.92;;
83232;SDS011;73119;42.642;23.332;2023-12-07T11:01:42;2.78;;;1.65;;
83232;SDS011;73119;42.642;23.332;2023-12-07T11:04:12;9.38;;;4.32;;
83232;SDS011;73119;42.642;23.332;2023-12-07T11:06:44;1.83;;;1.30;;
83232;SDS011;73119;42.642;23.332;2023-12-07T11:09:15;1.52;;;1.05;;
83232;SDS011;73119;42.642;23.332;2023-12-07T11:11:50;1.42;;;1.30;;
83232;SDS011;73119;42.642;23.332;2023-12-07T11:14:17;5.97;;;3.88;;
83232;SDS011;73119;42.642;23.332;2023-12-07T11:16:44;6.97;;;3.22;;
83232;SDS011;73119;42.642;23.332;2023-12-07T11:22:07;1.20;;;1.10;;
83232;SDS011;73119;42.642;23.332;2023-12-07T11:24:33;2.80;;;1.40;;
83232;SDS011;73119;42.642;23.332;2023-12-07T11:27:01;1.55;;;1.20;;
83232;SDS011;73119;42.642;23.332;2023-12-07T11:29:31;1.23;;;0.93;;
83232;SDS011;73119;42.642;23.332;2023-12-07T11:32:04;0.93;;;0.80;;
83232;SDS011;73119;42.642;23.332;2023-12-07T11:34:38;1.02;;;0.85;;
83232;SDS011;73119;42.642;23.332;2023-12-07T11:43:05;14.18;;;4.40;;
83232;SDS011;73119;42.642;23.332;2023-12-07T11:45:48;5.93;;;3.85;;
83232;SDS011;73119;42.642;23.332;2023-12-07T11:48:15;2.65;;;1.45;;
83232;SDS011;73119;42.642;23.332;2023-12-07T11:53:28;4.93;;;1.52;;
83232;SDS011;73119;42.642;23.332;2023-12-07T11:55:55;1.90;;;1.33;;
83232;SDS011;73119;42.642;23.332;2023-12-07T11:58:22;1.50;;;1.35;;
83232;SDS011;73119;42.642;23.332;2023-12-07T12:00:50;2.00;;;1.45;;
83232;SDS011;73119;42.642;23.332;2023-12-07T12:03:17;1.58;;;1.48;;
83232;SDS011;73119;42.642;23.332;2023-12-07T12:05:43;1.48;;;1.00;;
83232;SDS011;73119;42.642;23.332;2023-12-07T12:08:10;1.60;;;1.30;;
83232;SDS011;73119;42.642;23.332;2023-12-07T12:10:37;1.55;;;1.33;;
83232;SDS011;73119;42.642;23.332;2023-12-07T12:13:03;1.70;;;1.20;;
83232;SDS011;73119;42.642;23.332;2023-12-07T12:15:29;1.60;;;1.38;;
83232;SDS011;73119;42.642;23.332;2023-12-07T12:17:56;4.60;;;2.05;;
83232;SDS011;73119;42.642;23.332;2023-12-07T12:20:23;3.28;;;2.05;;
83232;SDS011;73119;42.642;23.332;2023-12-07T12:22:49;1.85;;;1.35;;
83232;SDS011;73119;42.642;23.332;2023-12-07T12:25:19;0.80;;;0.80;;
83232;SDS011;73119;42.642;23.332;2023-12-07T12:27:46;2.03;;;1.70;;
83232;SDS011;73119;42.642;23.332;2023-12-07T12:30:12;3.65;;;2.10;;
83232;SDS011;73119;42.642;23.332;2023-12-07T12:32:45;9.43;;;5.63;;
83232;SDS011;73119;42.642;23.332;2023-12-07T12:35:12;2.03;;;1.40;;
83232;SDS011;73119;42.642;23.332;2023-12-07T12:37:40;1.52;;;1.38;;
83232;SDS011;73119;42.642;23.332;2023-12-07T12:40:07;1.35;;;1.05;;
83232;SDS011;73119;42.642;23.332;2023-12-07T12:42:34;22.73;;;7.63;;
83232;SDS011;73119;42.642;23.332;2023-12-07T12:45:03;2.63;;;2.15;;
83232;SDS011;73119;42.642;23.332;2023-12-07T12:47:30;2.03;;;1.50;;
83232;SDS011;73119;42.642;23.332;2023-12-07T12:49:56;2.83;;;1.95;;
83232;SDS011;73119;42.642;23.332;2023-12-07T12:52:23;1.95;;;1.67;;
83232;SDS011;73119;42.642;23.332;2023-12-07T12:54:50;1.33;;;1.17;;
83232;SDS011;73119;42.642;23.332;2023-12-07T12:57:17;1.98;;;1.33;;
83232;SDS011;73119;42.642;23.332;2023-12-07T12:59:46;3.17;;;2.00;;
83232;SDS011;73119;42.642;23.332;2023-12-07T13:02:13;1.17;;;1.05;;
83232;SDS011;73119;42.642;23.332;2023-12-07T13:04:39;1.92;;;1.25;;
83232;SDS011;73119;42.642;23.332;2023-12-07T13:07:05;1.58;;;1.15;;
83232;SDS011;73119;42.642;23.332;2023-12-07T13:09:32;1.98;;;1.70;;
83232;SDS011;73119;42.642;23.332;2023-12-07T13:11:59;1.42;;;1.33;;
83232;SDS011;73119;42.642;23.332;2023-12-07T13:14:25;1.95;;;1.73;;
83232;SDS011;73119;42.642;23.332;2023-12-07T13:16:52;3.22;;;1.90;;
83232;SDS011;73119;42.642;23.332;2023-12-07T13:19:18;4.05;;;2.42;;
83232;SDS011;73119;42.642;23.332;2023-12-07T13:21:45;2.22;;;1.75;;
83232;SDS011;73119;42.642;23.332;2023-12-07T13:24:11;2.13;;;1.70;;
83232;SDS011;73119;42.642;23.332;2023-12-07T13:26:40;4.45;;;1.27;;
83232;SDS011;73119;42.642;23.332;2023-12-07T13:29:06;2.25;;;1.88;;
83232;SDS011;73119;42.642;23.332;2023-12-07T13:31:33;4.57;;;2.28;;
83232;SDS011;73119;42.642;23.332;2023-12-07T13:34:02;1.58;;;1.30;;
83232;SDS011;73119;42.642;23.332;2023-12-07T13:36:28;3.80;;;3.00;;
83232;SDS011;73119;42.642;23.332;2023-12-07T13:38:55;20.83;;;12.43;;
83232;SDS011;73119;42.642;23.332;2023-12-07T13:41:21;3.17;;;2.88;;
83232;SDS011;73119;42.642;23.332;2023-12-07T13:43:48;7.38;;;3.90;;
83232;SDS011;73119;42.642;23.332;2023-12-07T13:46:16;4.40;;;3.40;;
83232;SDS011;73119;42.642;23.332;2023-12-07T13:48:42;3.72;;;2.17;;
83232;SDS011;73119;42.642;23.332;2023-12-07T13:51:08;10.38;;;4.70;;
83232;SDS011;73119;42.642;23.332;2023-12-07T13:53:35;3.17;;;2.40;;
83232;SDS011;73119;42.642;23.332;2023-12-07T13:56:01;2.55;;;1.58;;
83232;SDS011;73119;42.642;23.332;2023-12-07T13:58:29;3.55;;;2.00;;
83232;SDS011;73119;42.642;23.332;2023-12-07T14:00:55;1.98;;;1.77;;
83232;SDS011;73119;42.642;23.332;2023-12-07T14:03:22;2.65;;;2.00;;
83232;SDS011;73119;42.642;23.332;2023-12-07T14:05:48;3.78;;;2.90;;
83232;SDS011;73119;42.642;23.332;2023-12-07T14:08:15;2.38;;;1.50;;
83232;SDS011;73119;42.642;23.332;2023-12-07T14:10:41;1.73;;;1.63;;
83232;SDS011;73119;42.642;23.332;2023-12-07T14:13:07;3.13;;;1.75;;
83232;SDS011;73119;42.642;23.332;2023-12-07T14:15:34;2.67;;;2.47;;
83232;SDS011;73119;42.642;23.332;2023-12-07T14:18:01;3.92;;;2.75;;
83232;SDS011;73119;42.642;23.332;2023-12-07T14:20:29;3.80;;;2.05;;
83232;SDS011;73119;42.642;23.332;2023-12-07T14:22:56;3.08;;;2.03;;
83232;SDS011;73119;42.642;23.332;2023-12-07T14:25:23;2.60;;;2.35;;
83232;SDS011;73119;42.642;23.332;2023-12-07T14:27:49;3.38;;;3.03;;
83232;SDS011;73119;42.642;23.332;2023-12-07T14:30:15;6.40;;;3.30;;
83232;SDS011;73119;42.642;23.332;2023-12-07T14:32:44;3.63;;;2.95;;
83232;SDS011;73119;42.642;23.332;2023-12-07T14:35:16;8.15;;;6.07;;
83232;SDS011;73119;42.642;23.332;2023-12-07T14:37:42;4.45;;;3.45;;
83232;SDS011;73119;42.642;23.332;2023-12-07T14:40:10;2.97;;;2.67;;
83232;SDS011;73119;42.642;23.332;2023-12-07T14:42:36;2.78;;;2.10;;
83232;SDS011;73119;42.642;23.332;2023-12-07T14:45:03;3.85;;;2.53;;
83232;SDS011;73119;42.642;23.332;2023-12-07T14:47:29;2.92;;;2.17;;
83232;SDS011;73119;42.642;23.332;2023-12-07T14:49:55;2.08;;;1.73;;
83232;SDS011;73119;42.642;23.332;2023-12-07T14:52:22;2.05;;;1.67;;
83232;SDS011;73119;42.642;23.332;2023-12-07T14:54:49;4.72;;;2.40;;
83232;SDS011;73119;42.642;23.332;2023-12-07T14:57:16;2.28;;;1.40;;
83232;SDS011;73119;42.642;23.332;2023-12-07T14:59:42;4.45;;;2.95;;
83232;SDS011;73119;42.642;23.332;2023-12-07T15:02:08;18.30;;;10.50;;
83232;SDS011;73119;42.642;23.332;2023-12-07T15:04:37;23.73;;;13.73;;
83232;SDS011;73119;42.642;23.332;2023-12-07T15:07:03;3.25;;;2.50;;
83232;SDS011;73119;42.642;23.332;2023-12-07T15:09:30;7.97;;;4.78;;
83232;SDS011;73119;42.642;23.332;2023-12-07T15:11:56;4.63;;;2.83;;